Time;durP1;ratioP1;P1;durP2;ratioP2;P2;SDS_P1;SDS_P2;PMS_P1;PMS_P2;Temp;Humidity;BMP_temperature;BMP_pressure;BME280_temperature;BME280_humidity;BME280_pressure;Samples;Min_cycle;Max_cycle;Signal;HPM_P1;HPM_P2
2022/07/12 00:00:04;;;;;;;4.27;3.97;;;;;;;15.71;67.07;95297.66;5070959;28;20453;-88
2022/07/12 00:02:31;;;;;;;6.20;4.37;;;;;;;15.68;67.85;95300.63;5089678;28;20480;-90
2022/07/12 00:04:58;;;;;;;8.43;5.00;;;;;;;15.62;67.22;95298.59;5089660;28;20837;-87
2022/07/12 00:07:25;;;;;;;4.43;4.03;;;;;;;15.57;67.74;95300.78;5089294;28;20451;-89
2022/07/12 00:09:53;;;;;;;4.77;4.40;;;;;;;15.48;67.92;95310.47;5089851;28;20817;-84
2022/07/12 00:12:20;;;;;;;8.13;4.30;;;;;;;15.47;67.69;95308.81;5090049;28;20456;-88
2022/07/12 00:14:48;;;;;;;4.40;4.10;;;;;;;15.49;68.10;95304.19;5089198;28;20515;-87
2022/07/12 00:17:15;;;;;;;3.43;3.23;;;;;;;15.45;67.85;95305.47;5089002;28;20488;-87
2022/07/12 00:19:42;;;;;;;4.40;3.90;;;;;;;15.43;68.07;95315.38;5089370;28;20803;-86
2022/07/12 00:22:09;;;;;;;4.37;4.07;;;;;;;15.41;67.52;95304.13;5089263;28;20448;-87
2022/07/12 00:24:36;;;;;;;4.63;4.30;;;;;;;15.37;67.29;95308.88;5088913;28;20454;-88
2022/07/12 00:27:05;;;;;;;4.10;3.80;;;;;;;15.40;67.26;95307.75;5089001;28;20444;-86
2022/07/12 00:29:31;;;;;;;7.23;4.23;;;;;;;15.38;66.75;95301.78;5076319;28;20449;-87
2022/07/12 00:31:58;;;;;;;4.17;3.87;;;;;;;15.37;66.24;95300.13;5075375;28;20446;-88
2022/07/12 00:34:26;;;;;;;5.03;4.27;;;;;;;15.35;66.72;95307.38;5075287;28;20456;-87
2022/07/12 00:36:53;;;;;;;4.50;3.43;;;;;;;15.33;66.56;95309.31;5077912;28;20496;-88
2022/07/12 00:39:19;;;;;;;3.63;3.43;;;;;;;15.27;66.16;95294.88;5075058;28;20940;-88
2022/07/12 00:41:49;;;;;;;5.63;4.00;;;;;;;15.35;65.88;95302.91;5075523;28;20927;-88
2022/07/12 00:44:17;;;;;;;4.23;3.77;;;;;;;15.30;65.32;95304.31;5075400;28;20451;-87
2022/07/12 00:46:44;;;;;;;4.30;4.00;;;;;;;15.26;65.81;95295.84;5075411;28;20456;-86
2022/07/12 00:49:15;;;;;;;4.23;3.90;;;;;;;15.25;65.65;95294.19;5074899;28;20437;-87
2022/07/12 00:51:42;;;;;;;4.07;3.77;;;;;;;15.23;65.43;95293.50;5074704;28;20448;-86
2022/07/12 00:54:09;;;;;;;3.93;3.53;;;;;;;15.14;65.21;95286.47;5075228;28;20434;-87
2022/07/12 00:56:36;;;;;;;3.47;3.27;;;;;;;15.21;66.08;95298.09;5074812;28;20449;-87
2022/07/12 00:59:03;;;;;;;4.03;3.23;;;;;;;15.25;65.83;95298.63;5075024;28;20445;-87
2022/07/12 01:01:32;;;;;;;3.90;3.60;;;;;;;15.23;65.91;95300.59;5072628;28;20448;-87
2022/07/12 01:03:59;;;;;;;3.50;3.20;;;;;;;15.20;65.97;95299.09;5074973;28;20468;-89
2022/07/12 01:06:27;;;;;;;3.63;3.40;;;;;;;15.12;65.84;95291.91;5075413;28;20453;-88
2022/07/12 01:08:54;;;;;;;4.13;3.93;;;;;;;15.15;65.45;95296.91;5074872;28;20453;-88
2022/07/12 01:11:21;;;;;;;3.90;3.67;;;;;;;15.15;65.46;95290.78;5074753;28;20456;-86
2022/07/12 01:13:50;;;;;;;5.00;3.40;;;;;;;15.17;65.63;95291.47;5074744;28;20944;-88
2022/07/12 01:16:18;;;;;;;3.87;3.43;;;;;;;15.19;65.50;95295.63;5074771;28;20572;-89
2022/07/12 01:18:47;;;;;;;3.47;3.17;;;;;;;15.21;65.28;95292.81;5074909;28;20488;-88
2022/07/12 01:21:19;;;;;;;6.43;4.13;;;;;;;15.29;65.45;95305.28;5074714;28;20454;-89
2022/07/12 01:23:48;;;;;;;7.93;3.23;;;;;;;15.27;65.12;95300.16;5074765;28;20954;-87
2022/07/12 01:26:15;;;;;;;4.03;3.73;;;;;;;15.25;65.37;95296.81;5074426;28;20803;-88
2022/07/12 01:28:42;;;;;;;4.47;3.50;;;;;;;15.23;65.64;95300.59;5074642;28;20456;-86
2022/07/12 01:31:10;;;;;;;4.27;3.93;;;;;;;15.22;66.27;95304.22;5074885;28;20537;-85
2022/07/12 01:33:37;;;;;;;5.83;4.20;;;;;;;15.22;66.22;95304.22;5074980;28;20461;-89
2022/07/12 01:36:05;;;;;;;4.10;3.90;;;;;;;15.22;67.14;95299.78;5074548;28;20455;-88
2022/07/12 01:38:32;;;;;;;3.70;3.50;;;;;;;15.21;66.73;95294.63;5074236;28;20872;-86
2022/07/12 01:41:01;;;;;;;7.27;3.43;;;;;;;15.16;67.13;95289.78;5072988;28;20457;-88
2022/07/12 01:43:28;;;;;;;4.57;4.27;;;;;;;15.20;67.93;95299.09;5075144;28;20445;-88
2022/07/12 01:45:55;;;;;;;4.30;3.90;;;;;;;15.20;68.44;95301.72;5075991;28;20452;-89
2022/07/12 01:48:22;;;;;;;7.83;4.37;;;;;;;15.24;68.21;95297.81;5075652;28;20815;-87
2022/07/12 01:50:49;;;;;;;6.90;3.70;;;;;;;15.25;68.52;95299.47;5074560;28;20463;-89
2022/07/12 01:53:17;;;;;;;5.43;3.90;;;;;;;15.28;68.24;95290.41;5074121;28;20441;-88
2022/07/12 01:55:44;;;;;;;4.17;3.87;;;;;;;15.27;68.15;95297.50;5074084;28;20422;-85
2022/07/12 01:58:14;;;;;;;4.53;4.10;;;;;;;15.24;68.58;95300.44;5073745;28;20517;-90
2022/07/12 02:00:41;;;;;;;5.70;4.60;;;;;;;15.26;69.11;95295.84;5073549;28;20491;-88
2022/07/12 02:03:08;;;;;;;5.13;4.73;;;;;;;15.23;68.90;95300.59;5073991;28;20448;-87
2022/07/12 02:05:36;;;;;;;5.70;5.23;;;;;;;15.17;69.52;95299.38;5073630;28;20437;-90
2022/07/12 02:08:03;;;;;;;5.13;4.77;;;;;;;15.15;69.31;95302.19;5038917;28;20461;-89
2022/07/12 02:10:30;;;;;;;6.20;5.10;;;;;;;15.14;70.14;95294.41;5073946;28;20528;-89
2022/07/12 02:12:57;;;;;;;6.50;5.27;;;;;;;15.15;69.99;95296.06;5073322;28;20449;-89
2022/07/12 02:15:26;;;;;;;5.70;5.30;;;;;;;15.13;69.74;95295.38;5075037;28;20457;-88
2022/07/12 02:17:53;;;;;;;5.57;5.03;;;;;;;15.11;69.96;95300.00;5074064;28;20500;-88
2022/07/12 02:20:19;;;;;;;6.40;5.80;;;;;;;15.10;70.16;95301.78;5073540;28;20454;-88
2022/07/12 02:22:46;;;;;;;5.13;4.83;;;;;;;15.04;69.52;95301.56;5073759;28;20453;-88
2022/07/12 02:25:13;;;;;;;4.87;4.57;;;;;;;15.01;69.50;95294.72;5073273;28;20989;-89
2022/07/12 02:27:41;;;;;;;5.50;5.10;;;;;;;15.01;70.35;95305.31;5073817;28;20454;-88
2022/07/12 02:30:10;;;;;;;8.80;4.30;;;;;;;14.98;70.26;95291.56;5073882;28;20449;-89
2022/07/12 02:32:38;;;;;;;4.83;4.43;;;;;;;14.91;68.60;95295.78;5073164;28;20445;-87
2022/07/12 02:35:06;;;;;;;4.70;4.00;;;;;;;14.90;68.73;95296.75;5073002;28;20984;-88
2022/07/12 02:37:33;;;;;;;4.60;4.30;;;;;;;14.79;69.39;95303.91;5073102;28;20535;-88
2022/07/12 02:42:40;;;;;;;4.90;3.50;;;;;;;14.72;68.86;95297.50;5073253;28;20463;-88
2022/07/12 02:45:08;;;;;;;4.37;3.93;;;;;;;14.73;69.22;95304.44;5073158;28;20520;-88
2022/07/12 02:47:39;;;;;;;4.10;3.80;;;;;;;14.72;69.22;95296.69;5073722;28;20456;-90
2022/07/12 02:50:06;;;;;;;4.37;4.07;;;;;;;14.76;69.26;95298.06;5073506;28;20464;-87
2022/07/12 02:52:34;;;;;;;3.80;3.60;;;;;;;14.75;68.89;95297.25;5073095;28;20449;-87
2022/07/12 02:55:01;;;;;;;3.90;3.60;;;;;;;14.72;68.58;95297.50;5072987;28;20457;-88
2022/07/12 02:57:28;;;;;;;6.33;4.43;;;;;;;14.73;69.88;95304.44;5073089;28;20477;-87
2022/07/12 02:59:55;;;;;;;7.93;3.70;;;;;;;14.69;69.13;95303.09;5073219;28;20445;-87
2022/07/12 03:02:22;;;;;;;4.67;3.63;;;;;;;14.71;69.20;95310.88;5073996;28;20441;-88
2022/07/12 03:04:50;;;;;;;5.43;4.60;;;;;;;14.72;69.30;95315.16;5076633;28;20966;-85
2022/07/12 03:07:17;;;;;;;6.33;4.23;;;;;;;14.72;69.84;95315.16;5077121;28;20452;-88
2022/07/12 03:09:44;;;;;;;6.50;4.07;;;;;;;14.69;70.58;95311.00;5078073;28;20492;-85
2022/07/12 03:12:12;;;;;;;5.10;3.80;;;;;;;14.75;70.88;95323.66;5078274;28;20450;-86
2022/07/12 03:14:39;;;;;;;4.50;4.10;;;;;;;14.78;70.32;95318.09;5077691;28;20452;-88
2022/07/12 03:17:06;;;;;;;3.83;3.53;;;;;;;14.79;70.11;95330.31;5078343;28;20508;-87
2022/07/12 03:19:33;;;;;;;6.10;3.60;;;;;;;14.83;70.56;95325.56;5077862;28;20734;-88
2022/07/12 03:22:01;;;;;;;4.30;3.90;;;;;;;14.81;69.56;95335.44;5078670;28;20441;-87
2022/07/12 03:24:28;;;;;;;5.50;4.10;;;;;;;14.85;70.30;95335.00;5077791;28;20455;-86
2022/07/12 03:26:55;;;;;;;3.90;3.60;;;;;;;14.92;69.98;95335.25;5077099;28;20958;-88
2022/07/12 03:29:22;;;;;;;4.73;4.00;;;;;;;15.04;69.87;95330.63;5078037;28;20480;-87
2022/07/12 03:31:50;;;;;;;3.70;3.40;;;;;;;15.15;69.89;95333.06;5058705;28;20514;-89
2022/07/12 03:34:17;;;;;;;8.30;4.20;;;;;;;15.30;69.86;95341.31;5072764;28;20958;-87
2022/07/12 03:36:44;;;;;;;4.97;4.57;;;;;;;15.53;67.98;95344.41;5054061;28;20450;-88
2022/07/12 03:39:12;;;;;;;4.10;3.80;;;;;;;15.76;67.43;95340.38;5072485;28;20480;-86
2022/07/12 03:41:39;;;;;;;4.60;4.20;;;;;;;15.96;67.51;95339.25;5072979;28;20449;-88
2022/07/12 03:44:07;;;;;;;5.43;4.57;;;;;;;16.01;67.31;95339.63;5073367;28;20496;-88
2022/07/12 03:46:34;;;;;;;4.13;3.83;;;;;;;15.98;67.25;95339.94;5073035;28;20445;-85
2022/07/12 03:49:01;;;;;;;6.83;4.33;;;;;;;15.94;68.51;95338.56;5072793;28;20448;-84
2022/07/12 03:51:28;;;;;;;6.70;5.13;;;;;;;15.89;68.46;95343.47;5072673;28;20453;-89
2022/07/12 03:53:55;;;;;;;9.20;4.30;;;;;;;15.86;68.25;95341.13;5072601;28;20452;-88
2022/07/12 03:59:07;;;;;;;13.20;5.10;;;;;;;16.06;69.05;95344.47;5072395;28;20472;-89
2022/07/12 04:01:34;;;;;;;10.17;5.40;;;;;;;16.33;67.33;95346.16;5072703;28;20460;-88
2022/07/12 04:04:02;;;;;;;5.80;5.40;;;;;;;16.55;66.85;95345.69;5074186;28;20457;-86
2022/07/12 04:06:30;;;;;;;5.50;5.00;;;;;;;16.79;65.77;95346.84;5076283;28;20480;-87
2022/07/12 04:08:57;;;;;;;6.30;5.70;;;;;;;17.11;64.13;95341.72;5076171;28;20479;-89
2022/07/12 04:11:26;;;;;;;6.50;5.90;;;;;;;17.41;62.26;95355.44;5076371;28;20457;-89
2022/07/12 04:13:53;;;;;;;7.60;5.10;;;;;;;17.74;61.19;95351.09;5076049;28;20453;-88
2022/07/12 04:16:20;;;;;;;6.80;6.10;;;;;;;18.23;59.80;95352.81;5075901;28;20492;-87
2022/07/12 04:18:46;;;;;;;10.20;6.03;;;;;;;18.62;57.26;95353.94;5075745;28;20481;-88
2022/07/12 04:21:13;;;;;;;10.83;6.63;;;;;;;18.90;56.46;95359.75;5075583;28;20445;-88
2022/07/12 04:23:40;;;;;;;8.27;5.23;;;;;;;19.24;55.39;95364.81;5076322;28;20520;-88
2022/07/12 04:26:08;;;;;;;8.00;5.77;;;;;;;19.62;55.52;95361.34;5076163;28;20507;-88
2022/07/12 04:28:37;;;;;;;5.57;5.10;;;;;;;19.91;53.61;95366.03;5075900;28;20480;-87
2022/07/12 04:31:04;;;;;;;5.17;4.33;;;;;;;20.26;53.24;95359.31;5075535;28;20437;-88
2022/07/12 04:33:31;;;;;;;5.57;5.07;;;;;;;20.66;51.92;95370.69;5075839;28;20440;-88
2022/07/12 04:35:58;;;;;;;5.73;5.13;;;;;;;20.83;51.20;95369.53;5075353;28;20449;-88
2022/07/12 04:38:25;;;;;;;5.50;5.00;;;;;;;21.02;50.03;95374.31;5075752;28;20495;-88
2022/07/12 04:40:52;;;;;;;5.83;5.23;;;;;;;21.31;49.92;95370.03;5075398;28;20546;-87
2022/07/12 04:43:19;;;;;;;7.00;5.33;;;;;;;21.45;49.95;95381.75;5075755;28;20451;-89
2022/07/12 04:45:47;;;;;;;7.70;4.70;;;;;;;21.50;48.42;95379.34;5075554;28;20454;-88
2022/07/12 04:48:14;;;;;;;7.03;5.00;;;;;;;21.51;48.41;95376.50;5058705;28;20439;-87
2022/07/12 04:50:41;;;;;;;5.10;4.70;;;;;;;21.65;48.40;95370.28;5075639;28;20485;-86
2022/07/12 04:53:08;;;;;;;8.00;4.70;;;;;;;22.00;48.08;95375.03;5076853;28;20446;-87
2022/07/12 04:55:35;;;;;;;4.70;4.40;;;;;;;22.13;47.04;95381.38;5061160;28;20467;-87
2022/07/12 04:58:03;;;;;;;7.40;5.27;;;;;;;22.48;46.25;95384.19;5075225;28;20477;-88
2022/07/12 05:00:30;;;;;;;5.53;4.77;;;;;;;22.70;46.39;95377.81;5075505;28;20800;-89
2022/07/12 05:02:58;;;;;;;5.90;5.10;;;;;;;22.73;45.33;95382.78;5075129;28;20453;-87
2022/07/12 05:05:26;;;;;;;6.60;5.20;;;;;;;22.93;45.57;95380.31;5075274;28;20463;-86
2022/07/12 05:07:52;;;;;;;5.20;4.80;;;;;;;22.71;45.58;95375.97;5074836;28;20802;-90
2022/07/12 05:10:19;;;;;;;5.73;5.20;;;;;;;22.77;45.62;95386.72;5075621;28;20885;-88
2022/07/12 05:12:46;;;;;;;5.57;4.73;;;;;;;22.90;45.23;95374.53;5075089;28;20459;-89
2022/07/12 05:15:13;;;;;;;8.00;5.27;;;;;;;23.15;45.71;95381.09;5075338;28;20456;-88
2022/07/12 05:17:40;;;;;;;5.13;4.70;;;;;;;23.20;43.81;95373.28;5074927;28;21068;-89
2022/07/12 05:20:10;;;;;;;5.87;5.47;;;;;;;23.04;44.32;95370.91;5075201;28;20506;-88
2022/07/12 05:22:37;;;;;;;5.60;5.20;;;;;;;22.78;45.72;95374.16;5074900;28;20466;-89
2022/07/12 05:25:06;;;;;;;9.90;4.73;;;;;;;22.94;46.68;95373.09;5075153;28;20830;-87
2022/07/12 05:27:32;;;;;;;14.27;5.33;;;;;;;23.24;45.92;95374.56;5074517;28;20440;-86
2022/07/12 05:29:59;;;;;;;7.27;4.60;;;;;;;23.34;44.52;95375.03;5074821;28;20814;-89
2022/07/12 05:32:26;;;;;;;6.33;5.30;;;;;;;23.24;44.88;95379.91;5074863;28;20540;-87
2022/07/12 05:34:54;;;;;;;8.17;5.60;;;;;;;23.27;45.19;95371.47;5074656;28;20456;-87
2022/07/12 05:37:24;;;;;;;4.97;4.60;;;;;;;23.62;44.97;95382.22;5074706;28;20457;-88
2022/07/12 05:39:51;;;;;;;6.73;4.53;;;;;;;23.85;44.37;95372.00;5074297;28;20484;-90
2022/07/12 05:42:18;;;;;;;5.97;4.23;;;;;;;24.19;44.36;95375.63;5074411;28;20456;-87
2022/07/12 05:44:45;;;;;;;4.90;4.47;;;;;;;24.23;42.87;95379.56;5074474;28;20498;-87
2022/07/12 05:47:13;;;;;;;5.73;4.30;;;;;;;24.23;43.16;95379.56;5074900;28;20511;-88
2022/07/12 05:49:40;;;;;;;5.00;4.33;;;;;;;24.22;41.96;95372.53;5074622;28;20449;-87
2022/07/12 05:54:54;;;;;;;7.10;4.63;;;;;;;24.11;41.66;95376.66;5074115;28;20457;-87
2022/07/12 05:57:21;;;;;;;6.77;5.37;;;;;;;24.04;42.04;95370.44;5074180;28;20448;-87
2022/07/12 05:59:48;;;;;;;7.90;4.80;;;;;;;24.17;42.42;95375.00;5073934;28;20476;-85
2022/07/12 06:02:15;;;;;;;5.90;4.03;;;;;;;24.41;42.10;95371.78;5074144;28;20457;-87
2022/07/12 06:04:41;;;;;;;8.73;4.97;;;;;;;24.76;42.05;95375.13;5073924;28;20453;-88
2022/07/12 06:07:08;;;;;;;10.97;4.67;;;;;;;25.00;42.26;95371.88;5073886;28;20433;-88
2022/07/12 06:09:35;;;;;;;7.90;5.10;;;;;;;24.94;41.54;95371.84;5073582;28;20462;-87
2022/07/12 06:12:05;;;;;;;6.80;5.10;;;;;;;24.98;41.34;95373.94;5074159;28;20827;-89
2022/07/12 06:14:32;;;;;;;14.97;6.93;;;;;;;25.08;40.97;95368.13;5074084;28;20453;-88
2022/07/12 06:16:59;;;;;;;6.80;5.13;;;;;;;25.20;40.41;95377.22;5073464;28;20480;-87
2022/07/12 06:19:27;;;;;;;7.63;5.33;;;;;;;25.24;40.36;95372.25;5074116;28;20516;-87
2022/07/12 06:21:54;;;;;;;4.80;4.40;;;;;;;25.57;39.89;95362.25;5074139;28;20478;-89
2022/07/12 06:24:20;;;;;;;7.13;5.13;;;;;;;25.74;39.98;95368.03;5074046;28;20439;-89
2022/07/12 06:26:47;;;;;;;10.37;4.40;;;;;;;25.98;40.09;95357.59;5073146;28;20450;-88
2022/07/12 06:29:16;;;;;;;8.43;5.43;;;;;;;26.08;39.39;95358.78;5073823;28;20519;-88
2022/07/12 06:31:43;;;;;;;7.83;5.37;;;;;;;25.84;39.14;95357.66;5073999;28;20538;-88
2022/07/12 06:34:10;;;;;;;24.17;6.90;;;;;;;25.92;39.58;95359.25;5074232;28;20439;-88
2022/07/12 06:36:37;;;;;;;8.90;5.40;;;;;;;25.72;39.29;95358.50;5073847;28;20938;-90
2022/07/12 06:39:04;;;;;;;12.83;4.83;;;;;;;25.66;39.99;95354.78;5073586;28;20486;-90
2022/07/12 06:41:31;;;;;;;9.93;5.57;;;;;;;25.90;39.59;95346.03;5073837;28;20959;-89
2022/07/12 06:43:59;;;;;;;7.60;5.20;;;;;;;26.27;38.95;95356.19;5073427;28;20463;-89
2022/07/12 06:46:28;;;;;;;9.17;5.10;;;;;;;26.56;38.95;95350.22;5073991;28;20880;-91
2022/07/12 06:48:55;;;;;;;8.77;4.20;;;;;;;26.53;37.24;95351.50;5073428;28;20448;-88
2022/07/12 06:51:22;;;;;;;9.03;4.93;;;;;;;26.57;37.72;95351.06;5073507;28;20441;-88
2022/07/12 06:53:49;;;;;;;6.10;5.07;;;;;;;26.39;37.30;95344.56;5073162;28;20445;-87
2022/07/12 06:56:16;;;;;;;4.97;4.27;;;;;;;26.64;38.41;95346.47;5073160;28;20451;-89
2022/07/12 06:58:43;;;;;;;5.20;4.70;;;;;;;26.74;36.86;95347.63;5073438;28;20895;-87
2022/07/12 07:01:10;;;;;;;5.30;3.97;;;;;;;26.81;37.19;95347.56;5073734;28;20527;-90
2022/07/12 07:03:38;;;;;;;5.60;4.00;;;;;;;26.67;36.79;95341.47;5072956;28;20475;-88
2022/07/12 07:06:05;;;;;;;6.53;4.30;;;;;;;26.46;36.06;95345.34;5073235;28;20471;-88
2022/07/12 07:08:32;;;;;;;5.90;4.30;;;;;;;26.46;36.86;95339.97;5073237;28;20463;-88
2022/07/12 07:10:59;;;;;;;5.97;4.27;;;;;;;26.71;37.24;95341.84;5073062;28;20467;-88
2022/07/12 07:13:26;;;;;;;22.57;5.67;;;;;;;26.92;36.72;95341.47;5073484;28;20453;-86
2022/07/12 07:15:53;;;;;;;9.83;4.40;;;;;;;27.14;35.17;95336.53;5073151;28;20452;-88
2022/07/12 07:18:20;;;;;;;5.03;3.67;;;;;;;27.14;34.73;95341.91;5073330;28;20444;-87
2022/07/12 07:20:48;;;;;;;5.87;3.70;;;;;;;27.09;35.14;95342.59;5072630;28;20510;-88
2022/07/12 07:23:16;;;;;;;5.10;3.50;;;;;;;27.13;35.02;95334.88;5072968;28;20978;-88
2022/07/12 07:25:44;;;;;;;2.97;2.77;;;;;;;27.22;34.72;95341.66;5073460;28;20453;-87
2022/07/12 07:28:11;;;;;;;2.60;2.40;;;;;;;26.67;34.60;95336.09;5073002;28;20472;-88
2022/07/12 07:30:52;;;;;;;6.60;2.50;;;;;;;26.59;34.04;95335.50;5073171;28;20551;-86
2022/07/12 07:33:19;;;;;;;5.10;2.40;;;;;;;26.05;35.19;95336.88;5073165;28;20543;-90
2022/07/12 07:35:48;;;;;;;5.63;3.20;;;;;;;25.57;36.44;95342.63;5072782;28;20455;-90
2022/07/12 07:38:15;;;;;;;5.77;2.90;;;;;;;24.95;36.81;95342.09;5073876;28;20450;-89
2022/07/12 07:40:42;;;;;;;5.53;3.03;;;;;;;24.50;37.78;95327.63;5076445;28;20989;-88
2022/07/12 07:43:09;;;;;;;6.70;3.17;;;;;;;24.20;38.70;95337.88;5076867;28;20516;-87
2022/07/12 07:45:36;;;;;;;3.47;2.80;;;;;;;24.38;38.93;95330.09;5077145;28;20449;-88
2022/07/12 07:48:04;;;;;;;9.13;3.23;;;;;;;24.63;38.75;95333.03;5076737;28;20454;-87
2022/07/12 07:50:31;;;;;;;4.80;3.20;;;;;;;24.91;38.97;95329.31;5077033;28;20460;-88
2022/07/12 07:53:00;;;;;;;5.80;2.90;;;;;;;25.14;37.88;95321.63;5076822;28;20451;-88
2022/07/12 07:55:27;;;;;;;9.20;2.80;;;;;;;25.20;37.58;95323.50;5076794;28;20454;-88
2022/07/12 07:57:54;;;;;;;2.83;2.53;;;;;;;25.17;36.20;95323.94;5076484;28;20986;-87
2022/07/12 08:00:21;;;;;;;3.23;2.20;;;;;;;25.25;35.47;95326.38;5076374;28;20482;-89
2022/07/12 08:02:48;;;;;;;6.60;2.37;;;;;;;25.37;35.66;95323.03;5076281;28;20534;-88
2022/07/12 08:05:15;;;;;;;4.83;2.20;;;;;;;25.44;34.70;95324.66;5076790;28;20455;-88
2022/07/12 08:07:42;;;;;;;3.33;2.27;;;;;;;25.18;33.79;95324.75;5076525;28;20442;-89
2022/07/12 08:10:10;;;;;;;3.97;2.63;;;;;;;25.18;35.06;95325.56;5076290;28;20467;-90
2022/07/12 08:12:37;;;;;;;5.00;2.33;;;;;;;24.59;33.65;95321.06;5076245;28;20535;-90
2022/07/12 08:15:06;;;;;;;3.40;2.10;;;;;;;24.76;35.44;95323.31;5075976;28;20975;-87
2022/07/12 08:17:33;;;;;;;2.67;2.03;;;;;;;24.90;35.30;95306.16;5075719;28;20516;-87
2022/07/12 08:20:00;;;;;;;2.97;2.17;;;;;;;24.93;33.87;95319.19;5075780;28;20477;-89
2022/07/12 08:22:27;;;;;;;9.83;2.50;;;;;;;25.19;35.56;95312.97;5075997;28;20944;-89
2022/07/12 08:24:54;;;;;;;4.57;2.60;;;;;;;25.38;33.86;95311.25;5075749;28;20473;-87
2022/07/12 08:27:23;;;;;;;2.13;1.93;;;;;;;25.62;32.72;95315.94;5075959;28;20460;-88
2022/07/12 08:29:50;;;;;;;3.80;1.90;;;;;;;25.58;32.46;95310.16;5076302;28;20479;-87
2022/07/12 08:32:17;;;;;;;2.63;1.77;;;;;;;25.37;32.17;95309.59;5075736;28;21169;-89
2022/07/12 08:34:44;;;;;;;2.87;1.70;;;;;;;25.36;32.21;95300.72;5075475;28;20431;-88
2022/07/12 08:37:11;;;;;;;5.83;1.70;;;;;;;25.35;32.16;95304.44;5075624;28;20937;-88
2022/07/12 08:39:38;;;;;;;6.60;2.00;;;;;;;25.18;32.83;95301.41;5075415;28;20486;-87
2022/07/12 08:42:09;;;;;;;6.03;2.67;;;;;;;24.28;33.19;95292.09;5075595;28;20451;-81
2022/07/12 08:44:37;;;;;;;2.53;2.30;;;;;;;24.01;34.96;95291.25;5075790;28;20457;-88
2022/07/12 08:47:04;;;;;;;2.47;2.00;;;;;;;24.17;35.97;95299.91;5075214;28;20437;-87
2022/07/12 08:49:31;;;;;;;3.03;1.97;;;;;;;24.42;34.82;95290.28;5075132;28;20448;-90
2022/07/12 08:51:58;;;;;;;9.73;2.30;;;;;;;24.34;34.63;95290.50;5075363;28;20461;-89
2022/07/12 08:54:25;;;;;;;4.07;2.10;;;;;;;24.13;34.85;95296.81;5075413;28;20456;-90
2022/07/12 08:56:58;;;;;;;2.27;2.07;;;;;;;23.96;35.43;95296.34;5075575;28;20947;-85
2022/07/12 08:59:25;;;;;;;3.90;2.50;;;;;;;23.99;36.60;95285.22;5075273;28;20481;-88
2022/07/12 09:01:55;;;;;;;3.40;2.00;;;;;;;24.25;36.79;95289.81;5075532;28;20455;-87
2022/07/12 09:04:25;;;;;;;6.17;3.00;;;;;;;24.61;35.84;95286.78;5075345;28;20442;-90
2022/07/12 09:06:52;;;;;;;8.93;3.10;;;;;;;25.05;34.68;95293.34;5077566;28;20444;-88
2022/07/12 09:09:29;;;;;;;2.57;2.20;;;;;;;25.30;33.73;95291.66;5076168;28;20455;-88
2022/07/12 09:11:56;;;;;;;3.20;2.40;;;;;;;25.14;33.74;95289.41;5075062;28;20450;-88
2022/07/12 09:14:23;;;;;;;3.27;1.97;;;;;;;24.80;33.11;95284.28;5075376;28;20457;-89
2022/07/12 09:17:04;;;;;;;2.67;1.93;;;;;;;24.20;33.89;95284.25;5074890;28;20491;-88
2022/07/12 09:19:31;;;;;;;4.80;2.37;;;;;;;23.83;34.73;95282.13;5075555;28;20505;-86
2022/07/12 09:21:59;;;;;;;6.77;2.60;;;;;;;23.81;36.40;95279.63;5074604;28;20451;-88
2022/07/12 09:24:27;;;;;;;4.20;2.17;;;;;;;24.13;36.30;95279.91;5074752;28;20460;-88
2022/07/12 09:26:57;;;;;;;2.47;2.27;;;;;;;24.30;35.42;95273.16;5075224;28;20541;-87
2022/07/12 09:29:25;;;;;;;3.87;2.20;;;;;;;24.52;34.58;95281.81;5075054;28;20444;-86
2022/07/12 09:37:25;;;;;;;6.83;2.17;;;;;;;24.65;33.12;95277.28;5074563;28;20980;-89
2022/07/12 09:39:53;;;;;;;3.80;2.13;;;;;;;24.58;32.63;95271.09;5074393;28;20973;-88
2022/07/12 09:42:21;;;;;;;3.23;2.37;;;;;;;24.54;33.48;95274.38;5074218;28;20451;-88
2022/07/12 09:44:50;;;;;;;4.13;1.70;;;;;;;24.67;33.13;95269.84;5075125;28;20478;-88
2022/07/12 09:47:17;;;;;;;2.03;1.80;;;;;;;24.86;33.97;95272.69;5074482;28;20476;-85
2022/07/12 09:49:45;;;;;;;4.30;2.10;;;;;;;25.06;32.83;95270.00;5055423;28;20423;-88
2022/07/12 09:52:16;;;;;;;3.43;2.43;;;;;;;24.81;32.09;95264.44;5073870;28;20452;-87
2022/07/12 09:54:43;;;;;;;2.20;1.97;;;;;;;24.58;31.66;95275.63;5074152;28;20476;-89
2022/07/12 09:57:19;;;;;;;3.87;2.00;;;;;;;24.44;33.03;95273.97;5073967;28;20449;-88
2022/07/12 09:59:47;;;;;;;2.70;1.90;;;;;;;24.36;33.75;95266.97;5074109;28;20481;-88
2022/07/12 10:02:16;;;;;;;2.17;1.90;;;;;;;24.45;34.16;95272.94;5073161;28;20443;-89
2022/07/12 10:04:46;;;;;;;6.50;2.13;;;;;;;24.42;33.35;95271.50;5073755;28;20446;-87
2022/07/12 10:07:15;;;;;;;7.63;1.87;;;;;;;24.33;33.67;95262.00;5073421;28;20940;-88
2022/07/12 10:09:43;;;;;;;3.67;1.63;;;;;;;24.40;34.57;95257.47;5073633;28;20452;-88
2022/07/12 10:12:11;;;;;;;2.37;1.80;;;;;;;24.23;33.49;95256.19;5073758;28;20490;-91
2022/07/12 10:14:40;;;;;;;7.30;2.00;;;;;;;24.27;33.31;95260.09;5076337;28;20452;-89
2022/07/12 10:17:10;;;;;;;4.10;1.80;;;;;;;24.14;32.99;95252.06;5073752;28;20480;-89
2022/07/12 10:19:38;;;;;;;3.77;1.60;;;;;;;24.40;33.86;95265.50;5073899;28;20544;-88
2022/07/12 10:22:20;;;;;;;2.70;1.77;;;;;;;24.53;34.04;95259.31;5055052;28;20454;-87
2022/07/12 10:24:48;;;;;;;2.70;2.20;;;;;;;24.67;33.92;95259.09;5073976;28;20487;-88
2022/07/12 10:27:32;;;;;;;2.83;1.70;;;;;;;24.58;31.17;95254.16;5073770;28;20436;-87
2022/07/12 10:30:24;;;;;;;1.77;1.67;;;;;;;24.51;31.06;95258.69;5073237;28;20836;-90
2022/07/12 10:32:56;;;;;;;2.13;1.90;;;;;;;24.16;31.75;95258.88;5073254;28;20448;-89
2022/07/12 10:35:24;;;;;;;1.80;1.70;;;;;;;23.93;32.18;95245.00;5073429;28;20451;-89
2022/07/12 10:38:21;;;;;;;2.57;1.83;;;;;;;23.86;32.60;95245.00;5073187;28;20455;-89
2022/07/12 10:40:50;;;;;;;4.80;1.80;;;;;;;23.92;32.68;95248.72;5073009;28;20904;-89
2022/07/12 10:46:18;;;;;;;3.20;1.67;;;;;;;24.04;32.27;95242.56;5073168;28;20486;-88
2022/07/12 10:48:45;;;;;;;2.70;1.60;;;;;;;24.13;32.10;95242.38;5073541;28;20503;-88
2022/07/12 10:51:16;;;;;;;2.13;1.43;;;;;;;24.05;31.74;95236.19;5073649;28;20472;-86
2022/07/12 10:53:46;;;;;;;2.80;1.50;;;;;;;23.95;31.45;95232.22;5073705;28;20456;-87
2022/07/12 10:56:17;;;;;;;4.43;1.70;;;;;;;24.18;31.64;95237.19;5073231;28;20789;-88
2022/07/12 10:58:46;;;;;;;3.30;1.60;;;;;;;24.39;33.18;95242.41;5073264;28;20456;-86
2022/07/12 11:01:15;;;;;;;1.47;1.37;;;;;;;24.51;32.86;95232.69;5072787;28;20481;-88
2022/07/12 11:03:44;;;;;;;3.03;1.63;;;;;;;24.66;31.44;95237.84;5072817;28;20453;-89
2022/07/12 11:06:13;;;;;;;1.87;1.30;;;;;;;24.71;31.25;95241.53;5073352;28;20434;-90
2022/07/12 11:08:59;;;;;;;2.67;1.70;;;;;;;24.55;31.84;95243.81;5073469;28;20438;-88
2022/07/12 11:11:28;;;;;;;5.10;1.73;;;;;;;24.52;32.30;95231.66;5073020;28;20445;-89
2022/07/12 11:13:56;;;;;;;3.57;1.80;;;;;;;24.38;31.24;95238.91;5072917;28;20447;-88
2022/07/12 11:16:24;;;;;;;4.80;2.07;;;;;;;24.29;31.50;95240.16;5072439;28;20538;-88
2022/07/12 11:18:52;;;;;;;2.47;1.73;;;;;;;24.38;32.57;95246.94;5073333;28;20505;-87
2022/07/12 11:21:19;;;;;;;1.80;1.70;;;;;;;24.51;33.00;95246.09;5072812;28;20479;-88
2022/07/12 11:23:46;;;;;;;1.90;1.70;;;;;;;24.49;33.07;95242.81;5073189;28;20456;-89
2022/07/12 11:26:15;;;;;;;2.10;1.90;;;;;;;24.45;33.93;95238.06;5073209;28;20465;-89
2022/07/12 11:28:44;;;;;;;2.53;2.13;;;;;;;24.51;33.65;95243.41;5073265;28;20876;-86
2022/07/12 11:31:12;;;;;;;4.90;1.73;;;;;;;24.61;33.42;95237.66;5073399;28;20520;-88
2022/07/12 11:33:41;;;;;;;7.77;1.77;;;;;;;24.73;32.61;95235.97;5073120;28;20446;-89
2022/07/12 11:36:09;;;;;;;7.30;1.90;;;;;;;24.71;33.42;95232.69;5072942;28;20828;-89
2022/07/12 11:38:38;;;;;;;3.97;1.87;;;;;;;24.65;33.60;95230.84;5073319;28;20814;-88
2022/07/12 11:41:06;;;;;;;3.60;2.60;;;;;;;24.38;33.54;95227.34;5072380;28;20485;-90
2022/07/12 11:43:37;;;;;;;2.47;2.00;;;;;;;24.39;33.86;95223.63;5072442;28;20446;-88
2022/07/12 11:46:05;;;;;;;6.90;2.17;;;;;;;24.31;32.90;95216.63;5072579;28;20485;-85
2022/07/12 11:48:33;;;;;;;2.20;1.70;;;;;;;24.25;33.32;95228.13;5072302;28;20545;-90
2022/07/12 11:51:03;;;;;;;1.93;1.60;;;;;;;24.16;34.80;95223.19;5072620;28;20455;-89
2022/07/12 11:53:31;;;;;;;2.63;1.83;;;;;;;24.27;34.56;95214.50;5072648;28;20524;-88